Time;durP1;ratioP1;P1;durP2;ratioP2;P2;SDS_P1;SDS_P2;PMS_P1;PMS_P2;Temp;Humidity;BMP_temperature;BMP_pressure;BME280_temperature;BME280_humidity;BME280_pressure;Samples;Min_cycle;Max_cycle;Signal;HPM_P1;HPM_P2
2023/03/28 00:14:02;;;;;;;63.40;19.90;;;;;;;1.31;61.13;99836.08;673557;1263;139592;-78
2023/03/28 00:29:10;;;;;;;60.00;22.50;;;;;;;1.40;61.36;99824.02;674801;1260;139734;-78
2023/03/28 00:44:41;;;;;;;28.50;13.80;;;;;;;1.56;61.98;99822.09;670468;1266;140466;-77
2023/03/28 00:59:45;;;;;;;59.30;22.20;;;;;;;1.80;62.13;99817.55;671889;1262;138899;-78
2023/03/28 01:14:48;;;;;;;99.10;36.20;;;;;;;1.99;62.71;99802.67;671457;1263;138974;-77
2023/03/28 01:30:28;;;;;;;23.20;10.80;;;;;;;2.17;63.05;99787.75;672080;1263;139312;-78
2023/03/28 01:46:06;;;;;;;55.70;20.70;;;;;;;2.56;62.79;99771.61;668295;1273;139873;-78
2023/03/28 02:01:29;;;;;;;23.90;10.10;;;;;;;2.73;62.63;99758.77;676796;1264;141396;-77
2023/03/28 02:16:37;;;;;;;15.10;5.40;;;;;;;2.93;62.05;99748.65;674339;1262;140181;-78
2023/03/28 02:31:59;;;;;;;12.50;4.90;;;;;;;2.96;60.44;99744.71;670868;1263;139213;-77
2023/03/28 02:47:30;;;;;;;11.00;5.20;;;;;;;2.66;60.39;99747.45;655086;1295;545015;-79
2023/03/28 03:02:34;;;;;;;9.60;5.10;;;;;;;2.63;59.95;99738.34;666925;1272;139450;-77
2023/03/28 03:17:38;;;;;;;13.70;6.40;;;;;;;2.65;60.06;99726.64;664756;1284;139141;-79
2023/03/28 03:32:42;;;;;;;13.90;6.70;;;;;;;2.92;60.20;99728.36;670467;1269;139119;-78
2023/03/28 03:47:46;;;;;;;15.40;7.20;;;;;;;2.94;60.81;99733.61;670195;1270;139467;-79
2023/03/28 04:02:50;;;;;;;15.30;7.80;;;;;;;2.87;61.89;99731.31;670842;1269;138460;-79
2023/03/28 04:18:03;;;;;;;27.20;11.40;;;;;;;2.91;62.80;99738.61;671857;1267;140075;-79
2023/03/28 04:33:16;;;;;;;36.40;17.50;;;;;;;2.96;64.67;99743.28;672869;1271;139555;-79
2023/03/28 04:48:21;;;;;;;41.80;17.30;;;;;;;3.10;65.03;99744.98;672195;1269;138886;-78
2023/03/28 05:07:57;;;;;;;53.30;29.70;;;;;;;3.45;65.46;99758.96;654223;1308;544916;-77
2023/03/28 05:23:02;;;;;;;34.40;15.60;;;;;;;3.53;65.61;99776.58;666342;1291;138051;-77
2023/03/28 05:38:06;;;;;;;37.80;16.10;;;;;;;3.66;66.22;99796.66;669198;1273;139366;-77
2023/03/28 05:53:10;;;;;;;34.00;15.10;;;;;;;3.86;66.80;99815.16;670470;1273;139253;-76
2023/03/28 06:08:14;;;;;;;45.00;23.90;;;;;;;3.84;67.69;99843.05;669066;1270;138667;-77
2023/03/28 06:23:18;;;;;;;39.40;19.30;;;;;;;3.51;67.29;99873.36;667298;1272;138825;-77
2023/03/28 06:38:21;;;;;;;27.50;14.60;;;;;;;3.38;67.60;99912.39;668606;1269;138864;-79
2023/03/28 06:53:26;;;;;;;28.80;11.90;;;;;;;3.43;67.83;99945.30;667631;1282;139125;-78
2023/03/28 07:08:30;;;;;;;37.40;20.00;;;;;;;3.70;68.27;99977.09;670632;1267;139095;-77
2023/03/28 07:23:33;;;;;;;53.20;35.20;;;;;;;3.86;67.81;100012.27;673643;1274;138180;-76
2023/03/28 07:38:38;;;;;;;21.90;12.90;;;;;;;4.05;67.65;100033.02;671269;1267;139410;-77
2023/03/28 07:53:42;;;;;;;21.70;9.10;;;;;;;5.22;65.62;100051.58;669581;1266;139108;-77
2023/03/28 08:08:45;;;;;;;5.80;3.60;;;;;;;5.37;61.41;100075.86;671950;1269;139181;-75
2023/03/28 08:23:57;;;;;;;10.10;4.50;;;;;;;5.08;60.78;100106.80;666006;1274;138821;-75
2023/03/28 08:39:10;;;;;;;96.00;31.70;;;;;;;5.80;60.21;100131.45;668042;1271;138516;-78
2023/03/28 08:54:35;;;;;;;129.70;48.60;;;;;;;6.46;57.70;100148.14;667069;1266;138543;-80
2023/03/28 09:10:06;;;;;;;46.70;17.90;;;;;;;5.70;54.74;100176.13;666772;1267;139488;-78
2023/03/28 09:25:38;;;;;;;15.10;7.80;;;;;;;6.73;53.71;100205.80;669714;1263;139397;-79
2023/03/28 09:40:46;;;;;;;8.70;4.10;;;;;;;6.07;52.56;100221.61;671236;1260;138784;-78
2023/03/28 09:55:55;;;;;;;6.00;3.50;;;;;;;7.43;52.11;100243.29;671554;1259;138295;-79
2023/03/28 10:11:18;;;;;;;6.60;3.50;;;;;;;7.22;50.64;100252.66;670966;1262;138224;-81
2023/03/28 10:26:25;;;;;;;5.70;2.90;;;;;;;7.18;50.13;100279.02;671832;1262;138266;-80
2023/03/28 10:41:29;;;;;;;5.80;3.20;;;;;;;7.44;49.44;100291.77;673377;1262;138387;-80
2023/03/28 10:56:56;;;;;;;10.10;5.20;;;;;;;6.62;50.86;100313.91;679246;1264;138347;-80
2023/03/28 11:12:37;;;;;;;23.40;11.80;;;;;;;6.96;50.97;100323.71;675641;1262;138539;-80
2023/03/28 11:28:35;;;;;;;43.00;22.40;;;;;;;6.11;53.14;100368.05;669475;1262;138852;-79
2023/03/28 11:44:03;;;;;;;9.60;4.60;;;;;;;6.98;53.84;100363.56;670714;1262;137760;-79
2023/03/28 11:59:16;;;;;;;12.60;7.00;;;;;;;5.76;54.83;100401.96;673236;1262;137987;-77
2023/03/28 12:14:39;;;;;;;12.50;6.00;;;;;;;5.99;56.71;100418.75;671175;1262;138644;-79
2023/03/28 12:30:01;;;;;;;7.60;4.10;;;;;;;6.93;56.78;100424.61;669665;1277;138722;-80
2023/03/28 12:45:13;;;;;;;8.40;4.30;;;;;;;8.16;53.40;100437.45;671394;1264;140271;-80
2023/03/28 13:00:32;;;;;;;7.70;4.10;;;;;;;7.34;55.59;100457.73;669302;1263;138382;-81
2023/03/28 13:15:59;;;;;;;25.40;9.70;;;;;;;6.21;54.99;100476.11;669859;1259;139670;-81
2023/03/28 13:31:10;;;;;;;28.00;11.30;;;;;;;4.92;57.53;100497.98;668656;1264;138130;-80
2023/03/28 13:46:20;;;;;;;9.80;4.80;;;;;;;6.97;57.39;100500.67;671127;1262;138966;-81
2023/03/28 14:01:26;;;;;;;22.30;9.10;;;;;;;9.06;52.85;100488.61;672320;1262;139892;-81
2023/03/28 14:16:32;;;;;;;7.10;4.40;;;;;;;7.44;51.09;100504.86;671005;1264;138172;-79
2023/03/28 14:31:39;;;;;;;17.70;6.40;;;;;;;5.86;53.79;100538.84;672549;1264;138615;-79
2023/03/28 14:46:42;;;;;;;22.50;8.20;;;;;;;5.76;55.83;100552.77;673850;1264;138318;-78
2023/03/28 15:01:50;;;;;;;28.10;11.60;;;;;;;8.02;54.15;100542.55;667507;1262;138234;-79
2023/03/28 15:16:54;;;;;;;;;;;;;;;6.87;53.93;100562.46;670858;1262;138026;-78
2023/03/28 15:32:04;;;;;;;15.70;6.80;;;;;;;5.81;54.27;100587.20;670688;1264;124923;-79
2023/03/28 15:47:17;;;;;;;23.30;11.00;;;;;;;6.28;54.02;100597.23;669810;1262;138103;-79
2023/03/28 16:02:24;;;;;;;25.20;9.00;;;;;;;6.87;51.38;100605.92;669568;1263;138930;-79
2023/03/28 16:17:30;;;;;;;21.90;11.20;;;;;;;9.11;49.71;100619.91;668220;1267;138914;-79
2023/03/28 16:32:44;;;;;;;13.70;6.70;;;;;;;5.37;49.73;100635.37;673284;1260;137511;-80
2023/03/28 16:47:48;;;;;;;22.40;9.00;;;;;;;4.80;51.06;100650.55;668877;1276;138893;-79
2023/03/28 17:02:51;;;;;;;18.00;7.60;;;;;;;4.60;51.62;100669.04;668253;1265;138692;-79
2023/03/28 17:17:55;;;;;;;53.30;23.70;;;;;;;4.61;52.82;100684.02;671212;1263;178306;-78
2023/03/28 17:32:58;;;;;;;112.80;39.00;;;;;;;4.36;52.91;100697.71;670262;1263;138549;-79
2023/03/28 17:48:02;;;;;;;99.70;36.50;;;;;;;4.21;52.79;100711.84;670401;1267;138980;-79
2023/03/28 18:03:06;;;;;;;36.80;15.80;;;;;;;4.12;53.10;100727.23;671684;1265;138440;-77
2023/03/28 18:18:31;;;;;;;51.10;21.70;;;;;;;3.92;52.95;100733.98;674459;1260;137894;-79
2023/03/28 18:33:37;;;;;;;97.10;39.90;;;;;;;3.79;53.21;100746.23;671739;1263;138273;-79
2023/03/28 18:48:41;;;;;;;158.60;63.70;;;;;;;3.69;53.01;100751.30;670210;1262;138393;-78
2023/03/28 19:03:46;;;;;;;74.30;33.80;;;;;;;3.57;53.23;100751.91;672734;1261;138601;-79
2023/03/28 19:18:51;;;;;;;99.00;30.20;;;;;;;3.35;52.85;100745.38;674796;1263;138372;-78
2023/03/28 19:33:54;;;;;;;179.60;52.10;;;;;;;3.10;52.58;100743.52;674152;1265;138959;-78
2023/03/28 19:49:02;;;;;;;85.80;23.70;;;;;;;2.85;52.45;100745.95;670788;1264;138608;-78
2023/03/28 20:04:06;;;;;;;259.70;70.80;;;;;;;2.55;52.95;100752.02;671910;1264;139081;-76
2023/03/28 20:19:09;;;;;;;76.70;22.80;;;;;;;2.51;52.88;100753.59;671468;1263;139757;-77
2023/03/28 20:34:13;;;;;;;163.50;63.00;;;;;;;2.36;53.36;100752.23;671866;1264;138663;-79
2023/03/28 20:49:16;;;;;;;38.90;16.00;;;;;;;2.26;53.37;100752.65;675271;1267;139466;-78
2023/03/28 21:04:21;;;;;;;24.70;11.50;;;;;;;2.25;53.46;100752.89;673617;1264;138928;-79
2023/03/28 21:19:24;;;;;;;68.70;25.20;;;;;;;2.24;53.52;100757.41;669510;1264;138902;-78
2023/03/28 21:34:32;;;;;;;22.60;8.20;;;;;;;2.14;53.38;100757.71;671823;1260;138429;-78
2023/03/28 21:49:36;;;;;;;19.90;7.20;;;;;;;2.07;53.27;100763.19;674498;1263;138951;-78
2023/03/28 22:04:39;;;;;;;21.50;8.20;;;;;;;2.08;53.46;100763.82;675929;1260;138802;-78
2023/03/28 22:19:43;;;;;;;23.60;8.60;;;;;;;2.01;53.32;100760.17;674245;1263;138906;-78
2023/03/28 22:34:46;;;;;;;18.30;6.30;;;;;;;1.90;53.22;100750.82;670980;1264;138523;-78
2023/03/28 22:49:52;;;;;;;14.80;6.40;;;;;;;1.81;53.76;100749.14;671091;1263;139257;-78
2023/03/28 23:04:57;;;;;;;12.70;5.00;;;;;;;1.78;53.62;100754.29;670110;1264;139994;-78
2023/03/28 23:20:00;;;;;;;10.30;4.10;;;;;;;1.70;53.90;100754.48;667824;1263;139602;-78
2023/03/28 23:35:05;;;;;;;8.60;4.10;;;;;;;1.73;54.29;100758.27;670269;1263;139756;-78
2023/03/28 23:50:09;;;;;;;8.60;3.90;;;;;;;1.81;54.96;100766.06;670739;1263;139837;-78
